Time;durP1;ratioP1;P1;durP2;ratioP2;P2;SDS_P1;SDS_P2;PMS_P1;PMS_P2;Temp;Humidity;BMP_temperature;BMP_pressure;BME280_temperature;BME280_humidity;BME280_pressure;Samples;Min_cycle;Max_cycle;Signal;HPM_P1;HPM_P2
2021/01/10 00:00:19;;;;;;;13.55;5.18;;;;;;;5.43;69.08;101510.41;4412208;32;20080;-77
2021/01/10 00:02:45;;;;;;;8.50;4.00;;;;;;;5.33;69.45;101505.56;4409887;32;20018;-77
2021/01/10 00:05:19;;;;;;;10.50;4.00;;;;;;;5.41;69.37;101501.66;4410215;32;20046;-76
2021/01/10 00:07:45;;;;;;;12.77;4.90;;;;;;;5.47;69.21;101496.50;4419278;32;20478;-77
2021/01/10 00:10:11;;;;;;;8.55;4.22;;;;;;;5.41;69.30;101506.41;4402601;32;20100;-77
2021/01/10 00:12:38;;;;;;;8.07;3.65;;;;;;;5.48;69.29;101509.25;4404307;32;20112;-77
2021/01/10 00:15:06;;;;;;;12.20;3.92;;;;;;;5.54;69.38;101504.94;4418512;32;20398;-77
2021/01/10 00:17:32;;;;;;;12.50;4.47;;;;;;;5.48;69.67;101504.50;4416515;32;20042;-77
2021/01/10 00:19:58;;;;;;;9.65;3.70;;;;;;;5.52;69.84;101516.50;4419069;32;20111;-77
2021/01/10 00:22:23;;;;;;;8.68;3.95;;;;;;;5.42;70.06;101502.44;4412556;32;20030;-76
2021/01/10 00:24:50;;;;;;;9.77;3.83;;;;;;;5.45;70.28;101490.50;4413126;32;20053;-77
2021/01/10 00:27:18;;;;;;;8.70;4.00;;;;;;;5.44;70.74;101494.47;4414685;32;20027;-77
2021/01/10 00:29:46;;;;;;;9.18;3.70;;;;;;;5.48;70.65;101493.31;4405677;32;20097;-78
2021/01/10 00:32:12;;;;;;;10.18;4.15;;;;;;;5.51;70.27;101497.31;4415127;32;20053;-78
2021/01/10 00:34:39;;;;;;;8.57;3.70;;;;;;;5.39;70.64;101484.47;4403775;32;20045;-79
2021/01/10 00:37:09;;;;;;;8.68;3.62;;;;;;;5.53;70.57;101483.78;4414332;32;20038;-78
2021/01/10 00:39:35;;;;;;;9.45;3.72;;;;;;;5.47;70.80;101479.75;4414112;32;20084;-79
2021/01/10 00:42:05;;;;;;;5.95;2.90;;;;;;;5.40;71.07;101480.47;4417300;32;20078;-79
2021/01/10 00:44:30;;;;;;;11.00;3.08;;;;;;;5.57;70.60;101481.81;4410011;32;20400;-79
2021/01/10 00:46:56;;;;;;;4.80;2.53;;;;;;;5.47;70.89;101465.81;4405657;32;20109;-79
2021/01/10 00:49:22;;;;;;;5.68;3.10;;;;;;;5.60;70.84;101490.25;4415362;32;20027;-79
2021/01/10 00:51:50;;;;;;;8.80;2.85;;;;;;;5.62;70.70;101482.25;4419349;32;20453;-79
2021/01/10 00:54:16;;;;;;;8.40;3.00;;;;;;;5.60;71.22;101475.47;4403597;32;20033;-78
2021/01/10 00:56:41;;;;;;;7.68;2.85;;;;;;;5.60;70.60;101462.31;4411606;32;20049;-79
2021/01/10 00:59:07;;;;;;;5.30;2.90;;;;;;;5.65;70.77;101459.16;4402951;32;20061;-79
2021/01/10 01:01:33;;;;;;;13.48;3.60;;;;;;;5.65;71.18;101475.13;4415057;32;20068;-78
2021/01/10 01:03:59;;;;;;;7.18;3.25;;;;;;;5.70;70.99;101469.16;4414798;32;20037;-78
2021/01/10 01:06:24;;;;;;;9.50;3.35;;;;;;;5.67;71.08;101464.34;4407422;32;20391;-79
2021/01/10 01:08:50;;;;;;;5.60;3.00;;;;;;;5.51;71.94;101453.47;4408840;32;20022;-79
2021/01/10 01:11:16;;;;;;;8.95;3.10;;;;;;;5.44;71.90;101444.25;4413872;32;20070;-79
2021/01/10 01:13:41;;;;;;;9.63;3.00;;;;;;;5.60;71.54;101467.09;4420621;32;20034;-79
2021/01/10 01:16:07;;;;;;;4.80;2.62;;;;;;;5.50;71.95;101462.22;4419766;32;20100;-79
2021/01/10 01:18:34;;;;;;;8.43;3.50;;;;;;;5.54;72.08;101465.84;4404077;32;20068;-76
2021/01/10 01:21:00;;;;;;;10.40;3.42;;;;;;;5.55;71.85;101464.66;4407915;32;20069;-79
2021/01/10 01:23:26;;;;;;;6.80;3.10;;;;;;;5.68;71.42;101463.19;4402941;32;20080;-79
2021/01/10 01:25:51;;;;;;;6.65;3.00;;;;;;;5.61;71.66;101460.31;4420255;32;20350;-79
2021/01/10 01:28:17;;;;;;;7.82;2.70;;;;;;;5.63;71.74;101450.37;4415528;32;20091;-78
2021/01/10 01:30:43;;;;;;;7.15;3.28;;;;;;;5.76;71.16;101460.03;4412717;32;20136;-79
2021/01/10 01:33:08;;;;;;;6.32;3.22;;;;;;;5.78;71.11;101448.47;4416873;32;20034;-79
2021/01/10 01:35:34;;;;;;;6.87;2.90;;;;;;;5.62;72.12;101457.13;4412759;32;20022;-78
2021/01/10 01:38:00;;;;;;;8.55;3.20;;;;;;;5.65;72.19;101458.38;4397424;32;20105;-79
2021/01/10 01:40:25;;;;;;;7.00;3.65;;;;;;;5.62;72.10;101459.91;4404728;32;20049;-79
2021/01/10 01:42:51;;;;;;;10.05;3.58;;;;;;;5.74;71.94;101461.63;4418274;32;20041;-79
2021/01/10 01:45:17;;;;;;;8.52;3.08;;;;;;;5.69;72.06;101457.19;4403673;32;20483;-79
2021/01/10 01:47:43;;;;;;;7.00;3.25;;;;;;;5.70;71.74;101460.78;4412955;32;20043;-78
2021/01/10 01:50:09;;;;;;;6.72;3.30;;;;;;;5.59;72.68;101465.50;4416572;32;20067;-77
2021/01/10 01:52:35;;;;;;;9.02;3.03;;;;;;;5.64;72.62;101460.34;4416508;32;20038;-76
2021/01/10 01:55:00;;;;;;;7.80;3.17;;;;;;;5.73;72.31;101462.78;4419335;32;20053;-76
2021/01/10 01:57:26;;;;;;;8.02;3.08;;;;;;;5.72;72.35;101464.81;4416984;32;20033;-76
2021/01/10 01:59:52;;;;;;;8.18;3.08;;;;;;;5.67;72.47;101467.94;4407530;32;20058;-77
2021/01/10 02:02:18;;;;;;;4.20;2.75;;;;;;;5.68;72.53;101472.34;4416161;32;20069;-77
2021/01/10 02:07:29;;;;;;;8.30;4.87;;;;;;;5.83;72.02;101471.28;3965224;32;15776514;-77
2021/01/10 02:09:59;;;;;;;10.52;2.90;;;;;;;5.83;72.02;101467.72;4438604;32;20037;-76
2021/01/10 02:12:28;;;;;;;8.10;2.80;;;;;;;5.64;72.88;101474.31;4436531;32;20460;-77
2021/01/10 02:14:58;;;;;;;8.95;2.97;;;;;;;5.74;72.55;101462.41;4447735;32;20045;-79
2021/01/10 02:17:27;;;;;;;4.87;2.67;;;;;;;5.68;72.81;101463.97;4438701;32;20064;-79
2021/01/10 02:20:04;;;;;;;10.15;3.15;;;;;;;5.60;73.20;101453.13;4442508;32;20038;-79
2021/01/10 02:22:36;;;;;;;5.68;2.75;;;;;;;5.66;72.81;101457.16;4434173;32;20424;-77
2021/01/10 02:25:03;;;;;;;5.75;2.45;;;;;;;5.71;72.69;101456.81;4435050;32;20396;-77
2021/01/10 02:27:29;;;;;;;7.07;2.95;;;;;;;5.72;72.94;101470.38;4429787;32;20473;-77
2021/01/10 02:29:55;;;;;;;8.93;2.40;;;;;;;5.67;73.09;101461.56;4427944;32;20447;-77
2021/01/10 02:32:23;;;;;;;5.32;2.45;;;;;;;5.75;72.82;101472.41;4435108;32;20120;-79
2021/01/10 02:34:50;;;;;;;4.95;2.53;;;;;;;5.74;72.84;101456.81;4424896;32;20446;-78
2021/01/10 02:37:43;;;;;;;7.37;2.78;;;;;;;5.75;72.89;101461.22;4427875;32;20030;-78
2021/01/10 02:45:34;;;;;;;4.87;2.85;;;;;;;6.35;71.99;101463.59;3990088;32;15022269;-76
2021/01/10 02:48:00;;;;;;;7.37;2.58;;;;;;;6.35;71.99;101463.59;4445832;32;20037;-76
2021/01/10 02:50:26;;;;;;;6.05;3.15;;;;;;;5.94;72.59;101449.81;4437957;32;20497;-76
2021/01/10 02:52:52;;;;;;;7.78;3.42;;;;;;;6.01;72.11;101447.06;4445071;32;20022;-77
2021/01/10 02:55:18;;;;;;;7.82;3.03;;;;;;;5.97;72.46;101451.84;4446280;32;20048;-77
2021/01/10 02:57:48;;;;;;;7.70;2.58;;;;;;;5.87;73.20;101452.53;4446220;32;20346;-79
2021/01/10 03:00:15;;;;;;;6.15;3.42;;;;;;;5.92;72.81;101443.00;4447528;32;20604;-78
2021/01/10 03:02:42;;;;;;;5.65;3.28;;;;;;;5.85;72.76;101438.19;4444833;32;20069;-77
2021/01/10 03:05:09;;;;;;;5.50;3.05;;;;;;;5.93;72.78;101436.25;4446449;32;20025;-76
2021/01/10 03:07:36;;;;;;;11.57;3.25;;;;;;;5.94;72.53;101443.41;4438473;32;20068;-76
2021/01/10 03:10:04;;;;;;;8.40;3.25;;;;;;;5.92;72.62;101443.81;4445250;32;20443;-77
2021/01/10 03:12:30;;;;;;;8.50;3.40;;;;;;;5.96;72.68;101436.25;4447196;32;20060;-77
2021/01/10 03:14:59;;;;;;;8.30;3.45;;;;;;;5.94;72.78;101446.22;4444547;32;20030;-77
2021/01/10 03:17:34;;;;;;;6.07;2.90;;;;;;;5.94;72.77;101444.22;4444279;32;20442;-77
2021/01/10 03:20:00;;;;;;;5.57;2.97;;;;;;;5.88;72.84;101444.97;4445801;32;20064;-77
2021/01/10 03:22:27;;;;;;;3.80;2.80;;;;;;;5.90;72.81;101446.19;4446686;32;20110;-76
2021/01/10 03:24:54;;;;;;;6.35;3.10;;;;;;;5.92;72.75;101448.59;4444614;32;20479;-76
2021/01/10 03:27:19;;;;;;;7.62;3.12;;;;;;;5.74;73.34;101444.88;4446019;32;20033;-76
2021/01/10 03:29:45;;;;;;;8.70;3.55;;;;;;;5.88;72.87;101442.19;4443986;32;20434;-80
2021/01/10 03:32:11;;;;;;;4.78;3.22;;;;;;;5.79;73.29;101456.47;4445795;32;20045;-76
2021/01/10 03:34:36;;;;;;;12.00;3.10;;;;;;;5.87;73.14;101444.16;4433967;32;20103;-77
2021/01/10 03:37:03;;;;;;;9.40;3.90;;;;;;;5.80;73.37;101444.09;4432350;32;20377;-76
2021/01/10 03:39:30;;;;;;;8.13;3.45;;;;;;;5.81;73.31;101444.91;4428538;32;20030;-76
2021/01/10 03:41:57;;;;;;;7.12;3.58;;;;;;;5.68;73.61;101438.03;4430867;32;20107;-77
2021/01/10 03:44:24;;;;;;;8.68;3.80;;;;;;;5.73;73.67;101434.88;4428624;32;20022;-76
2021/01/10 03:46:50;;;;;;;11.20;4.05;;;;;;;5.70;73.66;101436.47;4430874;32;20125;-77
2021/01/10 03:49:16;;;;;;;5.95;3.67;;;;;;;5.64;73.77;101435.22;4428681;32;20056;-79
2021/01/10 03:51:42;;;;;;;7.95;4.03;;;;;;;5.69;73.79;101431.25;4428952;32;20448;-77
2021/01/10 03:54:08;;;;;;;7.65;3.83;;;;;;;5.64;73.87;101437.19;4429709;32;20029;-77
2021/01/10 03:56:34;;;;;;;7.70;4.50;;;;;;;5.82;73.32;101438.16;4422193;32;20391;-76
2021/01/10 03:59:00;;;;;;;8.98;4.05;;;;;;;5.83;72.76;101434.19;4412989;32;20067;-80
2021/01/10 04:01:25;;;;;;;7.65;3.90;;;;;;;5.73;73.66;101427.31;4416740;32;20045;-76
2021/01/10 04:03:51;;;;;;;9.40;4.40;;;;;;;5.79;73.39;101422.16;4417193;32;20021;-76
2021/01/10 04:06:17;;;;;;;9.18;4.60;;;;;;;5.76;73.46;101431.31;4416903;32;20061;-76
2021/01/10 04:08:45;;;;;;;7.30;4.20;;;;;;;5.75;73.76;101429.72;4417830;32;20159;-76
2021/01/10 04:11:11;;;;;;;5.72;4.07;;;;;;;5.68;74.09;101429.66;4415804;32;20049;-76
2021/01/10 04:13:37;;;;;;;8.68;3.85;;;;;;;5.69;74.16;101443.25;4416509;32;20173;-78
2021/01/10 04:16:02;;;;;;;9.73;4.62;;;;;;;5.67;73.97;101428.84;4421150;32;20073;-77
2021/01/10 04:18:28;;;;;;;10.77;4.53;;;;;;;5.68;74.21;101429.66;4417547;32;20418;-77
2021/01/10 04:20:54;;;;;;;8.68;4.78;;;;;;;5.72;73.88;101434.09;4417201;32;20084;-79
2021/01/10 04:23:19;;;;;;;7.45;4.22;;;;;;;5.66;74.08;101424.47;4417964;32;20142;-78
2021/01/10 04:25:45;;;;;;;6.05;4.10;;;;;;;5.68;73.89;101424.88;4412807;32;20370;-76
2021/01/10 04:28:10;;;;;;;5.87;3.83;;;;;;;5.71;74.23;101423.31;4415138;32;21351;-77
2021/01/10 04:30:36;;;;;;;7.45;4.20;;;;;;;5.65;74.34;101420.06;4414420;32;20463;-77
2021/01/10 04:33:02;;;;;;;8.63;4.47;;;;;;;5.75;74.00;101415.75;4418106;32;20060;-76
2021/01/10 04:35:27;;;;;;;9.25;4.37;;;;;;;5.70;74.34;101416.91;4414376;32;20467;-79
2021/01/10 04:37:53;;;;;;;7.00;3.92;;;;;;;5.63;74.96;101404.88;4416804;32;20071;-76
2021/01/10 04:40:19;;;;;;;9.32;3.75;;;;;;;5.69;74.75;101417.28;4414878;32;20085;-76
2021/01/10 04:42:45;;;;;;;7.68;4.45;;;;;;;5.61;75.36;101415.63;4415412;32;20057;-76
2021/01/10 04:45:12;;;;;;;9.00;4.40;;;;;;;5.64;75.18;101418.47;4418087;32;20399;-77
2021/01/10 04:47:38;;;;;;;9.48;4.55;;;;;;;5.74;75.37;101420.50;4417548;32;20405;-79
2021/01/10 04:50:04;;;;;;;10.15;4.70;;;;;;;5.76;74.80;101418.16;4415860;32;20082;-77
2021/01/10 04:52:33;;;;;;;8.45;5.18;;;;;;;5.91;74.83;101425.44;4416733;32;20078;-76
2021/01/10 04:55:00;;;;;;;10.15;5.40;;;;;;;5.92;74.49;101409.47;4411358;32;20354;-79
2021/01/10 04:57:27;;;;;;;9.20;5.28;;;;;;;5.87;74.99;101421.03;4418010;32;20073;-75
2021/01/10 04:59:54;;;;;;;10.52;5.30;;;;;;;5.93;74.75;101423.06;4416515;32;20643;-77
2021/01/10 05:02:25;;;;;;;9.63;5.37;;;;;;;5.88;74.92;101411.47;4418425;32;20018;-79
2021/01/10 05:04:50;;;;;;;11.43;5.80;;;;;;;5.93;74.79;101411.09;4412402;32;20069;-76
2021/01/10 05:07:16;;;;;;;11.05;4.87;;;;;;;6.06;74.44;101417.94;4412726;32;20061;-77
2021/01/10 05:09:42;;;;;;;9.80;5.12;;;;;;;6.13;74.26;101413.19;4417916;32;20056;-76
2021/01/10 05:12:08;;;;;;;8.77;4.43;;;;;;;6.27;73.53;101420.03;4411413;32;20148;-77
2021/01/10 05:14:34;;;;;;;7.55;4.95;;;;;;;6.26;73.87;101416.41;4417810;32;20487;-77
2021/01/10 05:16:59;;;;;;;7.78;4.30;;;;;;;6.27;73.55;101411.66;4416793;32;20057;-76
2021/01/10 05:19:29;;;;;;;9.50;4.62;;;;;;;6.22;74.07;101414.84;4413102;32;20128;-77
2021/01/10 05:21:55;;;;;;;7.60;4.20;;;;;;;6.41;73.29;101408.91;4414181;32;20030;-77
2021/01/10 05:24:20;;;;;;;6.47;3.92;;;;;;;6.23;74.14;101410.84;4417184;32;20074;-78
2021/01/10 05:26:47;;;;;;;6.68;3.95;;;;;;;6.21;74.61;101410.41;4411479;32;20082;-78
2021/01/10 05:29:13;;;;;;;7.53;3.97;;;;;;;6.32;74.48;101414.84;4417336;32;20073;-77
2021/01/10 05:31:45;;;;;;;6.68;3.87;;;;;;;6.35;74.29;101418.88;4416197;32;20022;-77
2021/01/10 05:34:16;;;;;;;6.80;4.05;;;;;;;6.44;73.75;101417.28;4419247;32;20087;-77
2021/01/10 05:36:42;;;;;;;6.25;3.30;;;;;;;6.50;73.77;101417.75;4413451;32;20076;-77
2021/01/10 05:39:27;;;;;;;5.85;3.53;;;;;;;6.53;73.99;101422.53;4417812;32;20026;-77
2021/01/10 05:47:19;;;;;;;4.60;3.20;;;;;;;7.04;73.22;101423.84;3990249;32;15025434;-77
2021/01/10 05:52:25;;;;;;;7.00;3.83;;;;;;;6.84;73.81;101422.59;3991147;32;15022445;-76
2021/01/10 05:54:53;;;;;;;6.62;3.75;;;;;;;6.84;73.81;101422.59;4446208;32;20108;-76
2021/01/10 05:57:27;;;;;;;6.10;3.75;;;;;;;6.42;74.97;101421.69;4446588;32;20156;-77
2021/01/10 05:59:54;;;;;;;8.48;4.28;;;;;;;6.33;75.42;101419.28;4445445;32;20335;-77
2021/01/10 06:07:49;;;;;;;8.93;4.33;;;;;;;6.86;74.72;101427.81;4008368;31;15017391;-78
2021/01/10 06:10:30;;;;;;;8.73;4.40;;;;;;;6.86;74.72;101427.81;4466516;32;20194;-77
2021/01/10 06:13:05;;;;;;;9.85;4.90;;;;;;;6.53;75.24;101426.13;4472840;32;20037;-78
2021/01/10 06:15:31;;;;;;;;;;;;;;;6.43;75.10;101423.28;4468297;32;20037;-77
2021/01/10 06:18:00;;;;;;;8.55;4.85;;;;;;;6.40;75.30;101433.25;4464881;32;19980;-78
2021/01/10 06:20:29;;;;;;;9.07;4.90;;;;;;;6.54;75.14;101447.31;4467896;32;20034;-77
2021/01/10 06:22:56;;;;;;;12.10;5.22;;;;;;;6.57;74.97;101445.72;4465950;32;20044;-78
2021/01/10 06:25:24;;;;;;;11.07;5.07;;;;;;;6.56;74.83;101441.31;4465369;32;20082;-77
2021/01/10 06:30:54;;;;;;;11.85;5.47;;;;;;;7.29;73.25;101447.06;3988245;32;15021878;-78
2021/01/10 06:33:28;;;;;;;11.25;5.30;;;;;;;7.29;73.25;101447.06;4439009;32;20042;-77
2021/01/10 06:36:05;;;;;;;11.12;5.65;;;;;;;6.91;74.00;101435.81;4426554;32;20288;-78
2021/01/10 06:38:35;;;;;;;11.75;5.70;;;;;;;6.98;73.89;101435.81;4427282;32;20047;-78
2021/01/10 06:44:05;;;;;;;12.55;6.07;;;;;;;7.44;72.27;101447.84;4011644;31;15018356;-76
2021/01/10 06:46:32;;;;;;;9.27;5.25;;;;;;;7.44;72.27;101447.84;4474973;32;20041;-77
2021/01/10 06:49:00;;;;;;;12.52;5.82;;;;;;;7.06;73.42;101446.63;4469430;32;20082;-76
2021/01/10 06:51:29;;;;;;;8.50;5.03;;;;;;;7.07;73.03;101437.03;4470775;32;20036;-77
2021/01/10 06:53:57;;;;;;;11.18;5.90;;;;;;;7.18;73.10;101445.47;4469509;32;20072;-76
2021/01/10 06:56:23;;;;;;;11.80;5.43;;;;;;;7.30;72.84;101450.66;4472415;32;20189;-77
2021/01/10 06:59:09;;;;;;;9.55;5.40;;;;;;;7.34;72.28;101454.25;4471176;32;20500;-77
2021/01/10 07:07:41;;;;;;;12.77;5.75;;;;;;;7.95;70.19;101451.00;3973587;32;15022950;-76
2021/01/10 07:10:10;;;;;;;12.50;5.65;;;;;;;7.95;70.19;101451.00;4424745;32;20572;-77
2021/01/10 07:12:36;;;;;;;10.10;5.65;;;;;;;7.47;70.64;101436.66;4426434;32;20060;-76
2021/01/10 07:15:22;;;;;;;11.57;5.93;;;;;;;7.56;70.94;101431.47;4429841;32;20420;-75
2021/01/10 07:18:05;;;;;;;11.38;6.20;;;;;;;7.58;70.93;101436.66;4428719;32;20033;-77
2021/01/10 07:20:33;;;;;;;10.60;6.32;;;;;;;7.56;71.56;101422.25;4426970;32;20045;-77
2021/01/10 07:26:02;;;;;;;15.63;7.68;;;;;;;7.93;70.18;101420.59;3988635;32;15025006;-76
2021/01/10 07:28:40;;;;;;;16.27;8.85;;;;;;;7.93;70.18;101420.59;4440044;32;20064;-76
2021/01/10 07:31:08;;;;;;;18.27;10.65;;;;;;;7.57;70.60;101413.44;4443086;32;20572;-76
2021/01/10 07:33:34;;;;;;;18.05;10.55;;;;;;;7.46;70.95;101417.47;4438148;32;20434;-77
2021/01/10 07:36:00;;;;;;;18.95;11.30;;;;;;;7.44;70.60;101412.25;4428972;32;20041;-76
2021/01/10 07:38:27;;;;;;;24.73;11.90;;;;;;;7.41;70.89;101403.84;4428641;32;20099;-77
2021/01/10 07:40:53;;;;;;;15.60;10.00;;;;;;;7.37;71.21;101414.25;4429464;32;20056;-77
2021/01/10 07:43:19;;;;;;;19.23;10.23;;;;;;;7.34;71.47;101415.06;4428343;32;20081;-77
2021/01/10 07:45:45;;;;;;;19.30;8.93;;;;;;;7.24;71.39;101413.06;4422503;32;20052;-77
2021/01/10 07:48:28;;;;;;;16.45;8.88;;;;;;;7.11;72.58;101412.66;4429932;32;20155;-76
2021/01/10 07:51:15;;;;;;;14.13;8.75;;;;;;;7.21;72.28;101409.06;4427212;32;20045;-76
2021/01/10 07:53:48;;;;;;;15.90;9.02;;;;;;;7.10;72.12;101405.47;4430673;32;20077;-78
2021/01/10 07:56:15;;;;;;;19.05;9.00;;;;;;;6.99;72.41;101403.81;4428428;32;20059;-77
2021/01/10 07:58:41;;;;;;;16.75;8.82;;;;;;;6.80;73.30;101402.22;4427005;32;20426;-77
2021/01/10 08:01:07;;;;;;;15.23;9.10;;;;;;;6.57;74.06;101403.78;4429773;32;20052;-76
2021/01/10 08:03:32;;;;;;;15.38;8.20;;;;;;;6.60;74.34;101414.16;4429201;32;20030;-78
2021/01/10 08:06:02;;;;;;;13.48;8.65;;;;;;;6.59;74.53;101420.97;4428183;32;20029;-76
2021/01/10 08:08:39;;;;;;;16.67;8.70;;;;;;;6.72;74.31;101422.19;4427244;32;20077;-75
2021/01/10 08:11:06;;;;;;;17.60;9.18;;;;;;;6.71;74.23;101420.56;4427180;32;20538;-76
2021/01/10 08:13:35;;;;;;;14.87;9.00;;;;;;;6.69;74.75;101418.16;4429769;32;20071;-77
2021/01/10 08:21:14;;;;;;;12.68;7.55;;;;;;;7.37;73.61;101434.63;3991166;32;15021992;-78
2021/01/10 08:23:41;;;;;;;12.02;7.93;;;;;;;7.37;73.61;101434.63;4437976;32;20037;-78
2021/01/10 08:26:16;;;;;;;18.87;8.30;;;;;;;7.03;73.77;101432.63;4439040;32;20085;-79
2021/01/10 08:31:21;;;;;;;11.63;7.53;;;;;;;7.65;72.94;101437.44;3985978;32;15027014;-78
2021/01/10 08:33:48;;;;;;;14.00;7.53;;;;;;;7.65;72.94;101437.44;4439857;32;20150;-78
2021/01/10 08:44:11;;;;;;;11.07;5.55;;;;;;;7.65;73.34;101429.06;3994553;32;15025598;-77
2021/01/10 08:46:39;;;;;;;9.60;5.93;;;;;;;7.41;73.95;101427.06;4442733;32;20132;-77
2021/01/10 08:49:05;;;;;;;13.13;6.10;;;;;;;7.44;74.06;101417.84;4439856;32;20056;-78
2021/01/10 08:56:56;;;;;;;12.82;5.72;;;;;;;7.89;73.21;101419.00;3993460;32;15022832;-77
2021/01/10 08:59:22;;;;;;;12.63;5.87;;;;;;;7.89;73.21;101419.00;4446036;32;20056;-77
2021/01/10 09:01:48;;;;;;;12.40;5.65;;;;;;;7.28;75.04;101413.84;4443934;32;20178;-76
2021/01/10 09:04:15;;;;;;;12.40;5.80;;;;;;;7.48;74.49;101423.44;4445647;32;20074;-78
2021/01/10 09:09:40;;;;;;;12.25;6.10;;;;;;;7.76;73.62;101424.22;3989661;32;15022223;-77
2021/01/10 09:17:28;;;;;;;10.23;5.30;;;;;;;8.40;72.05;101432.47;4011911;31;15015221;-78
2021/01/10 09:20:00;;;;;;;9.40;4.82;;;;;;;8.40;72.05;101432.47;4473762;32;20569;-79
2021/01/10 09:22:29;;;;;;;8.15;4.22;;;;;;;7.95;73.29;101437.00;4470208;32;20089;-79
2021/01/10 09:24:55;;;;;;;7.70;4.55;;;;;;;8.06;73.20;101434.94;4471608;32;20092;-79
2021/01/10 09:27:21;;;;;;;6.90;4.12;;;;;;;8.14;72.59;101428.91;4468015;32;20063;-77
2021/01/10 09:29:47;;;;;;;7.68;3.90;;;;;;;8.06;72.54;101441.38;4465914;32;20464;-77
2021/01/10 09:32:21;;;;;;;9.82;4.97;;;;;;;8.29;72.42;101432.53;4462814;32;20071;-78
2021/01/10 09:34:55;;;;;;;6.90;4.10;;;;;;;8.06;72.50;101418.12;4461111;32;20041;-79
2021/01/10 09:37:26;;;;;;;9.05;4.30;;;;;;;8.19;72.15;101434.13;4450662;32;20045;-78
2021/01/10 09:39:52;;;;;;;9.93;4.85;;;;;;;8.11;72.32;101440.16;4435649;32;20144;-78
2021/01/10 09:42:19;;;;;;;8.65;4.95;;;;;;;8.18;72.72;101435.31;4446970;32;20069;-78
2021/01/10 09:44:53;;;;;;;8.25;4.12;;;;;;;8.13;73.14;101441.34;4453856;32;20434;-78
2021/01/10 09:47:34;;;;;;;6.55;4.47;;;;;;;8.26;72.68;101438.94;4451851;32;20370;-78
2021/01/10 09:49:59;;;;;;;7.85;4.28;;;;;;;8.33;72.38;101447.31;4458886;32;20417;-77
2021/01/10 09:52:25;;;;;;;8.55;4.18;;;;;;;8.25;72.25;101442.94;4441736;32;20067;-77
2021/01/10 09:54:58;;;;;;;8.13;4.93;;;;;;;8.28;72.73;101450.53;4451866;32;20065;-76
2021/01/10 09:57:23;;;;;;;9.43;4.90;;;;;;;8.26;72.87;101455.75;4450956;32;20052;-77
2021/01/10 10:02:35;;;;;;;8.98;4.47;;;;;;;8.47;72.09;101449.28;4013885;31;15016527;-77
2021/01/10 10:07:46;;;;;;;8.50;4.28;;;;;;;8.89;71.01;101449.84;3988544;32;15026556;-77
2021/01/10 10:15:53;;;;;;;7.93;4.37;;;;;;;9.26;69.92;101450.00;3985702;32;15023941;-77
2021/01/10 10:18:22;;;;;;;6.70;3.97;;;;;;;9.26;69.92;101450.00;4442323;32;20340;-77
2021/01/10 10:20:49;;;;;;;8.35;4.65;;;;;;;8.62;70.61;101454.41;4443634;32;20037;-77
2021/01/10 10:23:15;;;;;;;8.30;4.90;;;;;;;8.76;70.93;101450.72;4445965;32;20182;-77
2021/01/10 10:25:43;;;;;;;8.55;4.45;;;;;;;8.92;70.29;101454.63;4446264;32;20088;-77
2021/01/10 10:28:09;;;;;;;7.50;4.15;;;;;;;9.03;70.45;101449.78;4444010;32;20069;-77
2021/01/10 10:30:36;;;;;;;6.43;4.10;;;;;;;9.15;69.90;101457.72;4434986;32;20052;-80
2021/01/10 10:33:03;;;;;;;7.75;3.83;;;;;;;9.29;68.88;101454.78;4440033;32;20109;-76
2021/01/10 10:35:29;;;;;;;5.78;3.70;;;;;;;9.50;68.90;101449.00;4428902;32;20054;-78
2021/01/10 10:37:54;;;;;;;8.25;4.28;;;;;;;9.66;68.66;101451.25;4427354;32;20405;-78
2021/01/10 10:40:20;;;;;;;7.55;3.55;;;;;;;9.88;67.96;101456.28;4428863;32;20370;-77
2021/01/10 10:42:47;;;;;;;6.95;4.07;;;;;;;10.01;66.74;101456.56;4429333;32;20069;-78
2021/01/10 10:45:13;;;;;;;5.82;3.72;;;;;;;10.01;66.40;101446.09;4427157;32;20413;-78
2021/01/10 10:47:39;;;;;;;5.22;3.33;;;;;;;10.11;66.62;101452.88;4428439;32;21196;-78
2021/01/10 10:50:06;;;;;;;5.28;3.47;;;;;;;10.16;66.16;101446.78;4428710;32;20319;-79
2021/01/10 10:52:32;;;;;;;7.65;4.15;;;;;;;10.19;65.99;101439.53;4427142;32;20022;-79
2021/01/10 10:54:58;;;;;;;6.20;3.70;;;;;;;10.30;65.58;101451.44;4429292;32;20053;-77
2021/01/10 10:57:24;;;;;;;16.08;6.30;;;;;;;10.23;65.23;101451.53;4429095;32;20115;-75
2021/01/10 10:59:52;;;;;;;7.62;3.60;;;;;;;10.37;65.15;101457.78;4425578;32;20030;-79
2021/01/10 11:02:18;;;;;;;8.05;3.92;;;;;;;10.28;64.64;101457.47;4428034;32;20480;-78
2021/01/10 11:04:45;;;;;;;6.95;3.10;;;;;;;10.28;65.36;101448.25;4429290;32;20092;-77
2021/01/10 11:07:15;;;;;;;6.50;3.25;;;;;;;10.30;65.13;101452.25;4429850;32;20161;-77
2021/01/10 11:09:42;;;;;;;7.35;3.50;;;;;;;10.20;64.68;101441.13;4425995;32;20036;-78
2021/01/10 11:12:09;;;;;;;4.62;2.80;;;;;;;10.04;65.97;101448.06;4424145;32;20061;-78
2021/01/10 11:14:35;;;;;;;5.35;2.67;;;;;;;10.03;66.03;101440.06;4427985;32;20081;-78
2021/01/10 11:17:04;;;;;;;4.70;2.45;;;;;;;9.94;66.00;101434.94;4426748;32;20029;-78
2021/01/10 11:19:30;;;;;;;5.62;2.78;;;;;;;9.99;66.07;101439.31;4428591;32;20101;-79
2021/01/10 11:21:56;;;;;;;6.25;2.80;;;;;;;9.76;67.54;101442.72;4426591;32;20060;-77
2021/01/10 11:24:22;;;;;;;5.22;2.95;;;;;;;9.74;67.32;101419.87;4428904;32;20018;-78
2021/01/10 11:26:47;;;;;;;4.72;2.72;;;;;;;9.91;66.65;101424.53;4418772;32;20736;-78
2021/01/10 11:29:14;;;;;;;7.62;3.03;;;;;;;9.67;67.75;101419.16;4416659;32;20070;-77
2021/01/10 11:31:41;;;;;;;3.67;2.35;;;;;;;9.96;67.09;101426.06;4417248;32;20018;-78
2021/01/10 11:34:09;;;;;;;6.10;2.53;;;;;;;10.17;66.93;101414.62;4416441;32;20113;-78
2021/01/10 11:36:36;;;;;;;3.62;2.30;;;;;;;10.28;65.66;101404.03;4416312;32;20022;-77
2021/01/10 11:39:03;;;;;;;4.15;2.83;;;;;;;10.41;65.75;101407.91;4417655;32;20053;-78
2021/01/10 11:41:29;;;;;;;4.70;2.58;;;;;;;10.55;65.03;101404.13;4416551;32;20030;-79
2021/01/10 11:43:55;;;;;;;4.37;2.80;;;;;;;10.75;64.89;101402.22;4419333;32;20064;-78
2021/01/10 11:46:21;;;;;;;4.75;2.67;;;;;;;10.90;64.16;101410.03;4417908;32;20090;-79
2021/01/10 11:48:48;;;;;;;4.43;2.78;;;;;;;10.98;63.72;101419.19;4414655;32;20073;-79
2021/01/10 11:51:16;;;;;;;4.22;2.47;;;;;;;10.91;63.71;101416.47;4415978;32;20074;-78
2021/01/10 11:53:42;;;;;;;4.22;2.58;;;;;;;10.48;64.14;101407.81;4417545;32;20080;-79
2021/01/10 11:56:08;;;;;;;3.65;2.58;;;;;;;10.57;63.50;101407.28;4417540;32;20029;-78
2021/01/10 11:58:37;;;;;;;3.62;2.30;;;;;;;10.64;64.65;101415.63;4415517;32;20078;-79
2021/01/10 12:01:03;;;;;;;8.30;3.00;;;;;;;10.49;64.52;101406.56;4417855;32;20054;-78
2021/01/10 12:03:28;;;;;;;4.22;2.47;;;;;;;9.99;65.64;101403.56;4415225;32;20046;-78
2021/01/10 12:05:54;;;;;;;5.95;3.12;;;;;;;9.93;66.07;101410.03;4414237;32;20068;-79
2021/01/10 12:08:22;;;;;;;5.80;2.92;;;;;;;9.80;66.48;101403.37;4415953;32;20034;-79
2021/01/10 12:10:48;;;;;;;5.03;3.10;;;;;;;9.86;67.41;101412.94;4414390;32;20050;-78
2021/01/10 12:13:15;;;;;;;6.35;3.12;;;;;;;9.58;67.49;101405.56;4414825;32;20406;-78
2021/01/10 12:15:43;;;;;;;5.43;3.37;;;;;;;9.39;68.62;101411.00;4416626;32;20095;-78
2021/01/10 12:18:09;;;;;;;5.72;2.95;;;;;;;9.14;69.19;101405.56;4415052;32;20060;-78
2021/01/10 12:20:35;;;;;;;5.50;2.85;;;;;;;9.25;69.09;101397.84;4416264;32;20030;-78
2021/01/10 12:23:02;;;;;;;8.07;3.90;;;;;;;9.30;69.71;101388.19;4416932;32;20042;-78
2021/01/10 12:25:28;;;;;;;4.68;3.08;;;;;;;9.37;69.77;101397.34;4416970;32;20091;-78
2021/01/10 12:27:54;;;;;;;4.80;2.87;;;;;;;9.34;69.18;101394.56;4417521;32;20066;-77
2021/01/10 12:30:22;;;;;;;4.25;2.55;;;;;;;9.11;69.17;101389.53;4410947;32;20026;-78
2021/01/10 12:32:48;;;;;;;7.00;3.00;;;;;;;8.83;70.28;101392.53;4415951;32;20587;-79
2021/01/10 12:35:16;;;;;;;4.43;2.50;;;;;;;8.73;70.88;101393.41;4416718;32;20375;-78
2021/01/10 12:37:42;;;;;;;5.05;3.20;;;;;;;8.90;70.90;101391.72;4416893;32;20035;-79
2021/01/10 12:40:10;;;;;;;4.65;2.70;;;;;;;8.95;70.65;101397.69;4415667;32;20243;-79
2021/01/10 12:42:36;;;;;;;4.95;2.90;;;;;;;9.03;70.63;101384.41;4416937;32;20104;-78
2021/01/10 12:45:04;;;;;;;4.05;2.78;;;;;;;9.18;70.30;101383.06;4409370;32;20013;-78
2021/01/10 12:47:30;;;;;;;4.45;2.50;;;;;;;9.29;69.43;101381.75;4414547;32;20056;-78